createdAt,value
2023-01-01T00:00:01.927Z,100.00
2023-01-01T00:02:37.670Z,100.00
2023-01-01T00:05:05.922Z,100.00
2023-01-01T00:07:33.000Z,100.00
2023-01-01T00:10:18.320Z,100.00
2023-01-01T00:12:45.209Z,100.00
2023-01-01T00:15:12.035Z,100.00
2023-01-01T00:17:39.263Z,100.00
2023-01-01T00:20:06.859Z,100.00
2023-01-01T00:25:20.724Z,100.00
2023-01-01T00:27:47.682Z,100.00
2023-01-01T00:30:15.243Z,100.00
2023-01-01T00:32:42.117Z,100.00
2023-01-01T00:35:09.732Z,100.00
2023-01-01T00:37:39.426Z,100.00
2023-01-01T00:40:11.094Z,100.00
2023-01-01T00:42:40.788Z,100.00
2023-01-01T00:45:08.691Z,100.00
2023-01-01T00:47:35.799Z,100.00
2023-01-01T00:50:03.479Z,100.00
2023-01-01T00:52:32.026Z,100.00
2023-01-01T00:54:59.507Z,100.00
2023-01-01T00:57:26.587Z,100.00
2023-01-01T00:59:53.494Z,100.00
2023-01-01T01:02:20.750Z,100.00
2023-01-01T01:04:47.738Z,100.00
2023-01-01T01:07:14.804Z,100.00
2023-01-01T01:09:41.746Z,100.00
2023-01-01T01:12:17.964Z,100.00
2023-01-01T01:14:46.137Z,100.00
2023-01-01T01:17:13.145Z,100.00
2023-01-01T01:19:40.164Z,100.00
2023-01-01T01:22:07.016Z,100.00
2023-01-01T01:24:34.061Z,100.00
2023-01-01T01:27:01.047Z,100.00
2023-01-01T01:29:28.016Z,100.00
2023-01-01T01:31:55.229Z,100.00
2023-01-01T01:34:27.436Z,100.00
2023-01-01T01:36:57.323Z,100.00
2023-01-01T01:39:24.197Z,100.00
2023-01-01T01:41:51.334Z,100.00
2023-01-01T01:44:46.423Z,100.00
2023-01-01T01:47:27.438Z,100.00
2023-01-01T01:50:29.026Z,100.00
2023-01-01T01:52:56.001Z,100.00
2023-01-01T01:55:23.086Z,100.00
2023-01-01T01:57:50.345Z,100.00
2023-01-01T02:00:17.272Z,100.00
2023-01-01T02:02:55.112Z,100.00
2023-01-01T02:05:23.099Z,100.00
2023-01-01T02:07:52.096Z,100.00
2023-01-01T02:10:19.189Z,100.00
2023-01-01T02:12:46.311Z,100.00
2023-01-01T02:15:13.792Z,100.00
2023-01-01T02:17:54.716Z,100.00
2023-01-01T02:20:34.721Z,100.00
2023-01-01T02:23:36.899Z,100.00
2023-01-01T02:26:22.104Z,100.00
2023-01-01T02:29:05.637Z,100.00
2023-01-01T02:31:39.946Z,100.00
2023-01-01T02:34:12.974Z,100.00
2023-01-01T02:36:50.677Z,100.00
2023-01-01T02:39:21.503Z,100.00
2023-01-01T02:41:53.036Z,100.00
2023-01-01T02:44:22.472Z,100.00
2023-01-01T02:46:49.424Z,100.00
2023-01-01T02:49:16.392Z,100.00
2023-01-01T02:52:04.927Z,100.00
2023-01-01T02:54:41.353Z,100.00
2023-01-01T02:57:23.386Z,100.00
2023-01-01T03:00:21.784Z,100.00
2023-01-01T03:03:26.521Z,100.00
2023-01-01T03:06:24.530Z,100.00
2023-01-01T03:09:06.587Z,100.00
2023-01-01T03:11:43.910Z,100.00
2023-01-01T03:14:28.025Z,100.00
2023-01-01T03:16:59.542Z,100.00
2023-01-01T03:19:31.955Z,100.00
2023-01-01T03:22:10.626Z,100.00
2023-01-01T03:24:44.392Z,100.00
2023-01-01T03:27:23.767Z,100.00
2023-01-01T03:29:53.623Z,100.00
2023-01-01T03:32:46.827Z,100.00
2023-01-01T03:35:16.184Z,100.00
2023-01-01T03:37:45.360Z,100.00
2023-01-01T03:40:14.385Z,100.00
2023-01-01T03:42:48.700Z,100.00
2023-01-01T03:45:28.597Z,100.00
2023-01-01T03:47:56.827Z,100.00
2023-01-01T03:50:33.714Z,100.00
2023-01-01T03:53:10.127Z,100.00
2023-01-01T03:55:48.913Z,100.00
2023-01-01T03:58:24.751Z,100.00
2023-01-01T04:01:01.497Z,100.00
2023-01-01T04:03:31.176Z,100.00
2023-01-01T04:05:58.262Z,100.00
2023-01-01T04:08:25.429Z,100.00
2023-01-01T04:10:57.246Z,100.00
2023-01-01T04:13:24.380Z,100.00
2023-01-01T04:15:51.565Z,100.00
2023-01-01T04:18:18.805Z,100.00
2023-01-01T04:20:45.686Z,100.00
2023-01-01T04:23:12.549Z,100.00
2023-01-01T04:25:39.579Z,100.00
2023-01-01T04:28:06.991Z,100.00
2023-01-01T04:32:59.940Z,100.00
2023-01-01T04:35:26.874Z,100.00
2023-01-01T04:37:54.022Z,100.00
2023-01-01T04:40:20.987Z,100.00
2023-01-01T04:42:48.036Z,100.00
2023-01-01T04:45:15.597Z,100.00
2023-01-01T04:47:42.902Z,100.00
2023-01-01T04:50:10.659Z,100.00
2023-01-01T04:52:37.605Z,100.00
2023-01-01T04:55:04.924Z,100.00
2023-01-01T04:57:32.090Z,100.00
2023-01-01T05:00:00.111Z,100.00
2023-01-01T05:02:27.543Z,100.00
2023-01-01T05:04:54.625Z,100.00
2023-01-01T05:07:21.627Z,100.00
2023-01-01T05:09:48.611Z,100.00
2023-01-01T05:12:15.723Z,100.00
2023-01-01T05:14:42.694Z,100.00
2023-01-01T05:17:09.724Z,100.00
2023-01-01T05:19:36.530Z,100.00
2023-01-01T05:22:10.191Z,100.00
2023-01-01T05:24:37.989Z,100.00
2023-01-01T05:27:05.643Z,100.00
2023-01-01T05:29:32.635Z,100.00
2023-01-01T05:31:59.648Z,100.00
2023-01-01T05:34:27.462Z,100.00
2023-01-01T05:36:54.844Z,100.00
2023-01-01T05:39:21.910Z,100.00
2023-01-01T05:41:49.196Z,100.00
2023-01-01T05:44:17.383Z,100.00
2023-01-01T05:46:44.481Z,100.00
2023-01-01T05:49:12.161Z,100.00
2023-01-01T05:54:05.235Z,100.00
2023-01-01T05:56:32.372Z,100.00
2023-01-01T05:58:59.426Z,100.00
2023-01-01T06:01:29.138Z,100.00
2023-01-01T06:03:58.180Z,100.00
2023-01-01T06:06:33.347Z,100.00
2023-01-01T06:09:02.767Z,100.00
2023-01-01T06:11:30.803Z,100.00
2023-01-01T06:13:59.995Z,100.00
2023-01-01T06:16:31.292Z,100.00
2023-01-01T06:18:59.393Z,100.00
2023-01-01T06:21:28.325Z,100.00
2023-01-01T06:23:59.884Z,100.00
2023-01-01T06:26:31.054Z,100.00
2023-01-01T06:28:58.951Z,100.00
2023-01-01T06:31:32.996Z,100.00
2023-01-01T06:34:04.168Z,100.00
2023-01-01T06:36:30.990Z,100.00
2023-01-01T06:39:00.243Z,100.00
2023-01-01T06:41:42.851Z,100.00
2023-01-01T06:44:10.990Z,100.00
2023-01-01T06:46:37.933Z,100.00
2023-01-01T06:49:11.351Z,100.00
2023-01-01T06:51:41.474Z,100.00
2023-01-01T06:54:08.986Z,100.00
2023-01-01T06:56:36.819Z,100.00
2023-01-01T06:59:04.817Z,100.00
2023-01-01T07:01:35.795Z,100.00
2023-01-01T07:04:08.652Z,100.00
2023-01-01T07:06:36.660Z,100.00
2023-01-01T07:09:05.281Z,100.00
2023-01-01T07:11:33.229Z,100.00
2023-01-01T07:14:01.599Z,100.00
2023-01-01T07:16:28.790Z,100.00
2023-01-01T07:18:57.549Z,100.00
2023-01-01T07:21:36.431Z,100.00
2023-01-01T07:24:05.658Z,100.00
2023-01-01T07:26:34.427Z,100.00
2023-01-01T07:29:08.033Z,100.00
2023-01-01T07:31:40.319Z,100.00
2023-01-01T07:34:10.047Z,100.00
2023-01-01T07:36:37.103Z,100.00
2023-01-01T07:39:04.206Z,100.00
2023-01-01T07:41:31.123Z,100.00
2023-01-01T07:43:59.464Z,100.00
2023-01-01T07:46:27.475Z,100.00
2023-01-01T07:48:54.348Z,100.00
2023-01-01T07:51:21.579Z,100.00
2023-01-01T07:53:48.601Z,100.00
2023-01-01T07:56:16.095Z,100.00
2023-01-01T07:58:42.925Z,100.00
2023-01-01T08:01:12.533Z,100.00
2023-01-01T08:03:39.684Z,100.00
2023-01-01T08:06:11.588Z,100.00
2023-01-01T08:08:38.847Z,99.58
2023-01-01T08:11:06.365Z,98.52
2023-01-01T08:13:33.218Z,98.62
2023-01-01T08:16:00.371Z,98.64
2023-01-01T08:18:27.372Z,98.69
2023-01-01T08:20:54.435Z,98.30
2023-01-01T08:23:21.475Z,98.18
2023-01-01T08:25:48.480Z,98.10
2023-01-01T08:28:15.439Z,97.30
2023-01-01T08:30:43.473Z,96.98
2023-01-01T08:33:12.112Z,96.45
2023-01-01T08:35:42.062Z,96.14
2023-01-01T08:38:12.144Z,95.94
2023-01-01T08:40:39.477Z,95.75
2023-01-01T08:43:06.427Z,95.56
2023-01-01T08:45:33.933Z,95.38
2023-01-01T08:48:01.031Z,95.05
2023-01-01T08:50:27.950Z,94.81
2023-01-01T08:52:59.270Z,94.31
2023-01-01T08:55:28.721Z,93.66
2023-01-01T08:57:55.693Z,93.58
2023-01-01T09:00:22.561Z,93.37
2023-01-01T09:02:49.980Z,93.12
2023-01-01T09:05:17.272Z,92.48
2023-01-01T09:07:44.407Z,92.31
2023-01-01T09:10:11.319Z,91.67
2023-01-01T09:12:38.431Z,91.29
2023-01-01T09:15:06.442Z,90.97
2023-01-01T09:17:33.245Z,90.53
2023-01-01T09:20:00.350Z,89.98
2023-01-01T09:22:27.380Z,89.51
2023-01-01T09:24:54.601Z,88.88
2023-01-01T09:27:21.727Z,88.34
2023-01-01T09:30:00.172Z,87.91
2023-01-01T09:32:39.727Z,87.23
2023-01-01T09:35:07.991Z,86.55
2023-01-01T09:37:37.812Z,86.52
2023-01-01T09:40:09.431Z,86.09
2023-01-01T09:42:49.278Z,85.66
2023-01-01T09:45:29.618Z,85.33
2023-01-01T09:47:59.457Z,84.64
2023-01-01T09:50:36.725Z,84.56
2023-01-01T09:53:21.404Z,84.14
2023-01-01T09:55:58.543Z,83.80
2023-01-01T09:58:36.267Z,83.11
2023-01-01T10:01:29.608Z,82.05
2023-01-01T10:04:13.611Z,80.27
2023-01-01T10:06:56.842Z,79.08
2023-01-01T10:13:07.007Z,76.81
2023-01-01T10:15:40.807Z,76.16
2023-01-01T10:18:22.313Z,75.66
2023-01-01T10:20:59.599Z,74.50
2023-01-01T10:23:39.174Z,74.38
2023-01-01T10:26:15.284Z,73.80
2023-01-01T10:29:05.836Z,73.35
2023-01-01T10:31:34.629Z,72.89
2023-01-01T10:34:16.940Z,72.17
2023-01-01T10:36:54.801Z,71.51
2023-01-01T10:39:24.093Z,71.47
2023-01-01T10:41:51.869Z,70.51
2023-01-01T10:44:34.837Z,70.74
2023-01-01T10:47:26.498Z,71.27
2023-01-01T10:50:00.669Z,70.40
2023-01-01T10:52:46.589Z,69.37
2023-01-01T10:55:21.665Z,69.24
2023-01-01T10:57:48.940Z,69.37
2023-01-01T11:00:32.258Z,68.43
2023-01-01T11:03:20.130Z,68.33
2023-01-01T11:06:16.189Z,68.13
2023-01-01T11:08:54.017Z,67.84
2023-01-01T11:11:29.591Z,67.59
2023-01-01T11:14:00.510Z,67.36
2023-01-01T11:16:29.275Z,67.44
2023-01-01T11:19:06.181Z,66.83
2023-01-01T11:21:35.276Z,67.01
2023-01-01T11:24:22.378Z,66.60
2023-01-01T11:26:54.916Z,66.98
2023-01-01T11:29:30.477Z,66.99
2023-01-01T11:32:10.844Z,67.24
2023-01-01T11:34:44.402Z,67.08
2023-01-01T11:37:26.901Z,67.20
2023-01-01T11:39:56.773Z,66.91
2023-01-01T11:42:29.270Z,66.47
2023-01-01T11:45:14.449Z,66.07
2023-01-01T11:47:43.704Z,65.51
2023-01-01T11:50:16.787Z,65.69
2023-01-01T11:52:46.975Z,65.02
2023-01-01T11:55:39.126Z,65.14
2023-01-01T11:58:28.358Z,64.44
2023-01-01T12:01:02.302Z,64.30
2023-01-01T12:03:40.964Z,63.74
2023-01-01T12:06:25.170Z,63.98
2023-01-01T12:09:18.663Z,63.80
2023-01-01T12:11:57.962Z,64.09
2023-01-01T12:14:46.666Z,64.06
2023-01-01T12:17:23.891Z,64.14
2023-01-01T12:20:40.634Z,64.46
2023-01-01T12:23:06.556Z,64.51
2023-01-01T12:25:41.307Z,64.07
2023-01-01T12:28:23.671Z,64.08
2023-01-01T12:31:14.115Z,63.54
2023-01-01T12:34:23.392Z,63.42
2023-01-01T12:37:19.712Z,61.67
2023-01-01T12:40:24.320Z,60.22
2023-01-01T12:43:07.095Z,58.01
2023-01-01T12:49:28.430Z,57.37
2023-01-01T12:52:14.770Z,56.89
2023-01-01T12:55:20.095Z,52.36
2023-01-01T12:58:20.180Z,51.82
2023-01-01T13:00:59.735Z,51.52
2023-01-01T13:03:57.421Z,49.91
2023-01-01T13:06:52.435Z,50.22
2023-01-01T13:09:23.859Z,51.96
2023-01-01T13:11:55.571Z,53.34
2023-01-01T13:14:23.053Z,54.52
2023-01-01T13:16:56.979Z,55.96
2023-01-01T13:19:33.104Z,57.11
2023-01-01T13:22:21.238Z,58.26
2023-01-01T13:25:07.114Z,59.24
2023-01-01T13:28:05.173Z,60.31
2023-01-01T13:30:38.402Z,61.13
2023-01-01T13:33:36.909Z,61.67
2023-01-01T13:36:10.502Z,62.45
2023-01-01T13:39:04.070Z,62.62
2023-01-01T13:41:39.374Z,63.48
2023-01-01T13:44:07.933Z,63.98
2023-01-01T13:47:09.338Z,64.34
2023-01-01T13:49:42.383Z,64.59
2023-01-01T13:52:28.275Z,65.02
2023-01-01T13:55:32.241Z,65.10
2023-01-01T13:58:07.791Z,65.75
2023-01-01T14:01:05.999Z,65.78
2023-01-01T14:03:40.849Z,66.59
2023-01-01T14:06:37.892Z,66.73
2023-01-01T14:09:14.228Z,67.49
2023-01-01T14:11:42.109Z,68.10
2023-01-01T14:14:24.627Z,68.40
2023-01-01T14:16:53.969Z,68.90
2023-01-01T14:19:22.793Z,69.35
2023-01-01T14:21:50.291Z,69.88
2023-01-01T14:24:19.840Z,70.05
2023-01-01T14:26:47.881Z,70.28
2023-01-01T14:29:42.285Z,70.50
2023-01-01T14:32:24.439Z,70.87
2023-01-01T14:35:01.770Z,71.42
2023-01-01T14:37:29.574Z,71.57
2023-01-01T14:40:18.240Z,72.25
2023-01-01T14:42:49.129Z,72.70
2023-01-01T14:45:18.398Z,73.32
2023-01-01T14:47:52.272Z,73.34
2023-01-01T14:50:31.262Z,73.69
2023-01-01T14:53:08.971Z,74.16
2023-01-01T14:55:47.257Z,74.88
2023-01-01T14:58:19.870Z,75.39
2023-01-01T15:00:46.999Z,75.86
2023-01-01T15:03:22.880Z,76.17
2023-01-01T15:06:01.425Z,76.51
2023-01-01T15:08:28.755Z,77.02
2023-01-01T15:10:56.900Z,77.68
2023-01-01T15:13:32.508Z,78.01
2023-01-01T15:16:45.804Z,78.51
2023-01-01T15:19:20.868Z,79.59
2023-01-01T15:22:43.985Z,79.90
2023-01-01T15:25:52.212Z,80.69
2023-01-01T15:28:53.244Z,81.17
2023-01-01T15:31:20.425Z,82.03
2023-01-01T15:34:04.875Z,82.62
2023-01-01T15:36:33.536Z,82.93
2023-01-01T15:39:56.016Z,83.53
2023-01-01T15:42:38.848Z,84.06
2023-01-01T15:45:31.111Z,84.77
2023-01-01T15:48:32.096Z,85.71
2023-01-01T15:51:25.911Z,86.41
2023-01-01T15:54:02.228Z,86.93
2023-01-01T15:56:41.726Z,87.63
2023-01-01T15:59:27.746Z,88.00
2023-01-01T16:02:15.044Z,88.66
2023-01-01T16:04:50.124Z,89.02
2023-01-01T16:07:20.990Z,89.38
2023-01-01T16:09:51.987Z,89.76
2023-01-01T16:12:24.050Z,89.80
2023-01-01T16:14:51.068Z,90.26
2023-01-01T16:17:20.735Z,90.44
2023-01-01T16:19:48.460Z,90.97
2023-01-01T16:22:17.686Z,91.36
2023-01-01T16:24:45.624Z,91.54
2023-01-01T16:27:12.869Z,91.21
2023-01-01T16:29:54.352Z,91.79
2023-01-01T16:32:23.652Z,92.08
2023-01-01T16:34:59.818Z,92.07
2023-01-01T16:37:27.750Z,92.60
2023-01-01T16:39:54.596Z,92.51
2023-01-01T16:42:39.685Z,92.99
2023-01-01T16:45:07.420Z,93.23
2023-01-01T16:47:34.762Z,93.14
2023-01-01T16:50:01.783Z,93.34
2023-01-01T16:52:33.533Z,93.61
2023-01-01T16:55:01.040Z,94.04
2023-01-01T16:57:28.077Z,94.24
2023-01-01T16:59:55.139Z,94.65
2023-01-01T17:02:22.030Z,94.98
2023-01-01T17:04:48.978Z,95.38
2023-01-01T17:07:15.965Z,95.79
2023-01-01T17:09:43.250Z,95.84
2023-01-01T17:12:58.960Z,96.26
2023-01-01T17:15:25.923Z,96.54
2023-01-01T17:18:07.765Z,97.02
2023-01-01T17:20:44.430Z,96.92
2023-01-01T17:23:11.435Z,97.15
2023-01-01T17:25:38.490Z,97.12
2023-01-01T17:28:05.575Z,97.42
2023-01-01T17:30:32.609Z,97.42
2023-01-01T17:32:59.700Z,97.63
2023-01-01T17:35:32.911Z,97.92
2023-01-01T17:38:00.251Z,98.34
2023-01-01T17:40:30.799Z,98.47
2023-01-01T17:43:00.665Z,98.78
2023-01-01T17:45:27.559Z,98.84
2023-01-01T17:47:56.061Z,98.94
2023-01-01T17:50:24.297Z,98.65
2023-01-01T17:52:55.115Z,98.64
2023-01-01T17:55:22.672Z,98.66
2023-01-01T17:57:59.348Z,99.05
2023-01-01T18:00:28.087Z,99.36
2023-01-01T18:02:55.385Z,99.76
2023-01-01T18:05:22.627Z,99.93
2023-01-01T18:07:53.021Z,99.66
2023-01-01T18:10:20.926Z,99.53
2023-01-01T18:12:47.777Z,99.55
2023-01-01T18:15:15.554Z,99.17
2023-01-01T18:17:43.566Z,99.36
2023-01-01T18:20:10.983Z,99.68
2023-01-01T18:22:42.940Z,99.87
2023-01-01T18:25:10.720Z,100.00
2023-01-01T18:27:37.866Z,100.00
2023-01-01T18:30:05.777Z,100.00
2023-01-01T18:32:32.793Z,100.00
2023-01-01T18:34:59.855Z,100.00
2023-01-01T18:37:27.064Z,100.00
2023-01-01T18:39:59.293Z,100.00
2023-01-01T18:42:49.416Z,100.00
2023-01-01T18:45:22.775Z,100.00
2023-01-01T18:47:55.823Z,100.00
2023-01-01T18:50:26.612Z,100.00
2023-01-01T18:52:58.281Z,100.00
2023-01-01T18:55:28.214Z,100.00
2023-01-01T18:58:00.532Z,100.00
2023-01-01T19:00:31.177Z,100.00
2023-01-01T19:03:01.172Z,100.00
2023-01-01T19:05:30.843Z,100.00
2023-01-01T19:08:05.165Z,100.00
2023-01-01T19:10:35.753Z,100.00
2023-01-01T19:13:29.053Z,100.00
2023-01-01T19:16:11.840Z,100.00
2023-01-01T19:18:41.096Z,100.00
2023-01-01T19:21:08.015Z,100.00
2023-01-01T19:23:38.998Z,100.00
2023-01-01T19:26:11.598Z,100.00
2023-01-01T19:28:41.564Z,100.00
2023-01-01T19:31:09.807Z,100.00
2023-01-01T19:33:36.703Z,100.00
2023-01-01T19:36:03.958Z,100.00
2023-01-01T19:38:32.259Z,100.00
2023-01-01T19:40:59.173Z,100.00
2023-01-01T19:43:27.452Z,100.00
2023-01-01T19:45:54.828Z,100.00
2023-01-01T19:48:21.974Z,100.00
2023-01-01T19:50:50.149Z,100.00
2023-01-01T19:53:17.240Z,100.00
2023-01-01T19:55:44.332Z,100.00
2023-01-01T19:58:11.340Z,100.00
2023-01-01T20:00:38.759Z,100.00
2023-01-01T20:03:42.720Z,100.00
2023-01-01T20:05:52.700Z,100.00
2023-01-01T20:08:19.838Z,100.00
2023-01-01T20:10:46.863Z,100.00
2023-01-01T20:13:13.960Z,100.00
2023-01-01T20:15:46.515Z,100.00
2023-01-01T20:18:14.236Z,100.00
2023-01-01T20:21:00.005Z,100.00
2023-01-01T20:23:27.215Z,100.00
2023-01-01T20:25:54.190Z,100.00
2023-01-01T20:28:40.008Z,100.00
2023-01-01T20:31:07.064Z,100.00
2023-01-01T20:33:34.262Z,100.00
2023-01-01T20:36:19.966Z,100.00
2023-01-01T20:38:47.239Z,100.00
2023-01-01T20:41:23.467Z,100.00
2023-01-01T20:44:01.583Z,100.00
2023-01-01T20:46:31.879Z,100.00
2023-01-01T20:48:59.495Z,100.00
2023-01-01T20:51:27.599Z,100.00
2023-01-01T20:53:54.559Z,100.00
2023-01-01T20:56:21.620Z,100.00
2023-01-01T20:58:53.311Z,100.00
2023-01-01T21:01:25.087Z,100.00
2023-01-01T21:03:52.019Z,100.00
2023-01-01T21:06:24.215Z,100.00
2023-01-01T21:08:52.566Z,100.00
2023-01-01T21:11:19.455Z,100.00
2023-01-01T21:13:47.703Z,100.00
2023-01-01T21:16:17.647Z,100.00
2023-01-01T21:18:46.246Z,100.00
2023-01-01T21:21:16.065Z,100.00
2023-01-01T21:23:43.245Z,100.00
2023-01-01T21:26:36.212Z,100.00
2023-01-01T21:29:12.671Z,100.00
2023-01-01T21:31:40.548Z,100.00
2023-01-01T21:34:29.031Z,100.00
2023-01-01T21:37:02.086Z,100.00
2023-01-01T21:39:31.016Z,100.00
2023-01-01T21:42:16.260Z,100.00
2023-01-01T21:44:43.381Z,100.00
2023-01-01T21:47:25.101Z,100.00
2023-01-01T21:50:01.597Z,100.00
2023-01-01T21:52:34.058Z,100.00
2023-01-01T21:55:09.307Z,100.00
2023-01-01T21:57:37.920Z,100.00
2023-01-01T22:00:10.941Z,100.00
2023-01-01T22:02:39.695Z,100.00
2023-01-01T22:05:37.645Z,100.00
2023-01-01T22:08:24.874Z,100.00
2023-01-01T22:10:54.921Z,100.00
2023-01-01T22:13:22.789Z,100.00
2023-01-01T22:15:49.860Z,100.00
2023-01-01T22:18:31.600Z,100.00
2023-01-01T22:21:02.917Z,100.00
2023-01-01T22:23:35.601Z,100.00
2023-01-01T22:26:12.018Z,100.00
2023-01-01T22:28:43.801Z,100.00
2023-01-01T22:31:18.010Z,100.00
2023-01-01T22:33:48.146Z,100.00
2023-01-01T22:36:26.347Z,100.00
2023-01-01T22:38:59.906Z,100.00
2023-01-01T22:41:27.087Z,100.00
2023-01-01T22:44:02.651Z,100.00
2023-01-01T22:46:35.967Z,100.00
2023-01-01T22:49:18.524Z,100.00
2023-01-01T22:51:47.677Z,100.00
2023-01-01T22:54:14.660Z,100.00
2023-01-01T22:56:41.637Z,100.00
2023-01-01T22:59:08.489Z,100.00
2023-01-01T23:01:36.184Z,100.00
2023-01-01T23:04:04.385Z,100.00
2023-01-01T23:06:32.714Z,100.00
2023-01-01T23:09:00.184Z,100.00
2023-01-01T23:11:27.816Z,100.00
2023-01-01T23:14:13.467Z,100.00
2023-01-01T23:16:41.192Z,100.00
2023-01-01T23:19:32.057Z,100.00
2023-01-01T23:22:01.874Z,100.00
2023-01-01T23:24:30.415Z,100.00
2023-01-01T23:26:59.475Z,100.00
2023-01-01T23:29:32.305Z,100.00
2023-01-01T23:32:01.565Z,100.00
2023-01-01T23:34:28.794Z,100.00
2023-01-01T23:36:57.298Z,100.00
2023-01-01T23:39:24.220Z,100.00
2023-01-01T23:41:51.721Z,100.00
2023-01-01T23:44:21.883Z,100.00
2023-01-01T23:46:49.109Z,100.00
2023-01-01T23:49:16.919Z,100.00
2023-01-01T23:51:43.967Z,100.00
2023-01-01T23:54:10.904Z,100.00
2023-01-01T23:56:38.434Z,100.00
2023-01-01T23:59:05.659Z,100.00
